Time;durP1;ratioP1;P1;durP2;ratioP2;P2;SDS_P1;SDS_P2;PMS_P1;PMS_P2;Temp;Humidity;BMP_temperature;BMP_pressure;BME280_temperature;BME280_humidity;BME280_pressure;Samples;Min_cycle;Max_cycle;Signal;HPM_P1;HPM_P2
2022/11/07 00:01:22;;;;;;;3.45;2.03;;;;;;;13.11;59.22;98950.72;4993911;28;20046;-60
2022/11/07 00:03:52;;;;;;;6.72;2.28;;;;;;;13.18;57.94;98945.78;4993540;28;20112;-59
2022/11/07 00:06:18;;;;;;;5.60;2.30;;;;;;;13.17;58.35;98958.16;4993381;28;20124;-60
2022/11/07 00:08:45;;;;;;;5.57;2.17;;;;;;;13.19;58.18;98942.19;5010838;28;20052;-61
2022/11/07 00:11:12;;;;;;;4.65;2.15;;;;;;;13.20;58.14;98952.63;5010979;28;20073;-59
2022/11/07 00:13:38;;;;;;;7.60;2.20;;;;;;;13.22;58.46;98952.50;5010897;28;20049;-61
2022/11/07 00:16:07;;;;;;;4.35;1.88;;;;;;;13.22;58.49;98958.63;5012385;28;20054;-59
2022/11/07 00:18:34;;;;;;;4.45;2.00;;;;;;;13.25;58.29;98950.47;5015177;28;20400;-61
2022/11/07 00:21:06;;;;;;;6.28;2.15;;;;;;;13.25;58.93;98947.81;5014314;28;20085;-59
2022/11/07 00:23:33;;;;;;;4.25;1.85;;;;;;;13.28;58.63;98959.94;4997235;28;20104;-59
2022/11/07 00:26:08;;;;;;;5.28;2.20;;;;;;;13.26;59.65;98960.06;5014304;28;20568;-59
2022/11/07 00:28:37;;;;;;;5.65;2.08;;;;;;;13.31;58.92;98965.00;5014420;28;20137;-59
2022/11/07 00:31:05;;;;;;;3.97;1.55;;;;;;;13.33;58.63;98952.47;5014246;28;20046;-59
2022/11/07 00:33:32;;;;;;;3.40;1.75;;;;;;;13.36;58.77;98967.25;5014254;28;20049;-60
2022/11/07 00:35:58;;;;;;;6.55;1.98;;;;;;;13.37;58.63;98969.75;5014317;28;20072;-61
2022/11/07 00:38:25;;;;;;;7.88;2.20;;;;;;;13.39;58.76;98975.75;5014452;28;20136;-58
2022/11/07 00:40:56;;;;;;;3.47;1.80;;;;;;;13.39;59.18;98977.56;5014247;28;20108;-59
2022/11/07 00:43:23;;;;;;;3.30;1.90;;;;;;;13.43;58.86;98976.34;5012840;28;20103;-60
2022/11/07 00:45:50;;;;;;;3.60;1.70;;;;;;;13.45;58.81;98970.94;5013979;28;20375;-58
2022/11/07 00:48:17;;;;;;;5.53;2.00;;;;;;;13.46;58.83;98977.91;5014456;28;20453;-58
2022/11/07 00:50:43;;;;;;;5.63;1.80;;;;;;;13.47;59.02;98977.78;5014015;28;20109;-59
2022/11/07 00:53:10;;;;;;;6.93;2.30;;;;;;;13.49;58.99;98977.69;5014040;28;20096;-59
2022/11/07 00:55:37;;;;;;;4.40;1.80;;;;;;;13.50;58.86;98984.66;5013787;28;20320;-59
2022/11/07 00:58:04;;;;;;;9.82;1.90;;;;;;;13.50;59.04;98987.31;5014413;28;20140;-61
2022/11/07 01:00:38;;;;;;;4.45;1.58;;;;;;;13.53;58.94;98984.41;5013866;28;20136;-60
2022/11/07 01:06:01;;;;;;;5.15;1.70;;;;;;;13.52;59.48;98988.84;5013608;28;20058;-60
2022/11/07 01:08:29;;;;;;;6.30;2.10;;;;;;;13.55;58.97;98988.59;5013610;28;20062;-62
2022/11/07 01:10:56;;;;;;;4.35;1.42;;;;;;;13.57;58.88;98998.22;4996199;28;20180;-60
2022/11/07 01:13:24;;;;;;;4.43;1.80;;;;;;;13.58;59.06;98998.09;5013989;28;20105;-60
2022/11/07 01:15:51;;;;;;;7.20;2.05;;;;;;;13.58;59.05;98997.25;5013581;28;20426;-60
2022/11/07 01:18:17;;;;;;;4.03;1.83;;;;;;;13.59;58.70;98993.63;5013303;28;20052;-59
2022/11/07 01:20:44;;;;;;;4.65;1.70;;;;;;;13.60;58.87;98992.69;5013701;28;20046;-59
2022/11/07 01:23:10;;;;;;;5.30;1.67;;;;;;;13.61;58.98;98995.16;5013281;28;20089;-61
2022/11/07 01:25:38;;;;;;;3.95;1.85;;;;;;;13.61;59.01;99000.47;5013074;28;20050;-59
2022/11/07 01:28:06;;;;;;;4.85;1.77;;;;;;;13.62;59.08;99010.09;5012703;28;20046;-59
2022/11/07 01:30:32;;;;;;;4.63;1.80;;;;;;;13.62;59.00;98999.53;5013197;28;20533;-59
2022/11/07 01:32:59;;;;;;;9.45;2.50;;;;;;;13.64;59.11;99005.50;5013045;28;20144;-61
2022/11/07 01:35:26;;;;;;;5.75;1.80;;;;;;;13.64;59.05;99009.97;5012975;28;20410;-58
2022/11/07 01:37:52;;;;;;;4.20;1.45;;;;;;;13.65;58.88;99009.81;5012914;28;20046;-59
2022/11/07 01:40:19;;;;;;;6.10;1.48;;;;;;;13.65;59.12;99012.47;5013233;28;20061;-59
2022/11/07 01:42:45;;;;;;;3.72;1.55;;;;;;;13.65;59.00;99009.00;5012860;28;20429;-60
2022/11/07 01:45:18;;;;;;;6.80;1.60;;;;;;;13.64;59.10;99015.25;5012715;28;20152;-60
2022/11/07 01:47:45;;;;;;;3.28;1.35;;;;;;;13.66;59.04;99011.53;4995468;28;20053;-59
2022/11/07 01:50:12;;;;;;;6.65;1.63;;;;;;;13.65;59.02;99001.88;5012815;28;20057;-59
2022/11/07 01:52:42;;;;;;;2.47;1.33;;;;;;;13.64;59.11;99005.50;4995216;28;20065;-60
2022/11/07 01:55:18;;;;;;;3.97;1.52;;;;;;;13.64;58.94;99010.78;5012712;28;20145;-60
2022/11/07 01:57:56;;;;;;;4.35;1.70;;;;;;;13.62;59.54;99010.09;5012754;28;20050;-60
2022/11/07 02:00:24;;;;;;;5.13;1.63;;;;;;;13.65;59.12;99025.69;5012852;28;20054;-59
2022/11/07 02:02:56;;;;;;;4.03;1.55;;;;;;;13.65;59.47;99009.81;5012594;28;20046;-60
2022/11/07 02:05:46;;;;;;;3.38;1.83;;;;;;;13.63;59.73;99014.41;5012672;28;20046;-60
2022/11/07 02:08:14;;;;;;;4.05;1.67;;;;;;;13.66;59.18;99006.25;5012536;28;20046;-59
2022/11/07 02:10:42;;;;;;;7.70;1.58;;;;;;;13.66;59.08;99018.59;5012394;28;20521;-60
2022/11/07 02:13:12;;;;;;;6.43;1.90;;;;;;;13.66;59.08;99013.31;5012392;28;20506;-62
2022/11/07 02:15:39;;;;;;;3.53;1.90;;;;;;;13.66;59.22;99014.16;5012383;28;20058;-59
2022/11/07 02:18:06;;;;;;;7.15;1.92;;;;;;;13.66;59.27;99023.91;5012330;28;20041;-57
2022/11/07 02:20:33;;;;;;;7.35;1.98;;;;;;;13.66;59.34;99019.47;4994812;28;20112;-59
2022/11/07 02:23:07;;;;;;;3.85;1.90;;;;;;;13.64;59.68;99016.09;4995065;28;20050;-59
2022/11/07 02:25:35;;;;;;;3.90;1.50;;;;;;;13.68;59.17;99024.59;4994562;28;20050;-58
2022/11/07 02:28:05;;;;;;;5.45;1.90;;;;;;;13.66;59.50;99022.09;5012226;28;20050;-59
2022/11/07 02:30:33;;;;;;;5.35;1.88;;;;;;;13.67;59.27;99023.78;5012398;28;20432;-63
2022/11/07 02:33:01;;;;;;;7.25;1.83;;;;;;;13.67;59.37;99021.13;4994864;28;20054;-60
2022/11/07 02:35:33;;;;;;;7.00;1.88;;;;;;;13.66;59.82;99019.47;4994414;28;20056;-60
2022/11/07 02:38:02;;;;;;;5.13;2.08;;;;;;;13.67;59.50;99026.41;5012108;28;20053;-60
2022/11/07 02:40:29;;;;;;;5.28;1.77;;;;;;;13.69;59.57;99018.38;4993807;28;20081;-58
2022/11/07 02:42:58;;;;;;;5.70;2.10;;;;;;;13.68;59.75;99016.66;5012281;28;20050;-60
2022/11/07 02:45:34;;;;;;;7.90;1.90;;;;;;;13.67;60.13;99031.72;4994290;28;20374;-58
2022/11/07 02:48:01;;;;;;;5.90;2.00;;;;;;;13.70;59.45;99030.63;5011905;28;20046;-62
2022/11/07 02:50:28;;;;;;;8.77;2.22;;;;;;;13.71;59.53;99018.25;5011831;28;20061;-59
2022/11/07 02:52:55;;;;;;;4.43;1.85;;;;;;;13.71;59.57;99028.81;5011857;28;20046;-59
2022/11/07 02:55:21;;;;;;;6.43;2.00;;;;;;;13.71;59.54;99027.00;5011495;28;20148;-62
2022/11/07 02:57:48;;;;;;;6.30;1.90;;;;;;;13.72;59.42;99027.84;5011881;28;20045;-59
2022/11/07 03:00:15;;;;;;;6.57;2.20;;;;;;;13.72;59.43;99023.38;5011878;28;20557;-60
2022/11/07 03:02:48;;;;;;;4.50;1.77;;;;;;;13.71;59.70;99039.41;5011894;28;20074;-60
2022/11/07 03:05:17;;;;;;;6.25;2.50;;;;;;;13.72;59.62;99035.78;5011667;28;20402;-60
2022/11/07 03:07:46;;;;;;;5.68;1.98;;;;;;;13.72;59.55;99038.44;4994254;28;20093;-56
2022/11/07 03:10:14;;;;;;;3.55;1.60;;;;;;;13.74;59.77;99036.47;5011948;28;20108;-60
2022/11/07 03:12:41;;;;;;;6.13;1.98;;;;;;;13.74;59.63;99042.63;4994028;28;20077;-59
2022/11/07 03:15:09;;;;;;;5.97;2.08;;;;;;;13.72;59.74;99041.91;5011645;28;20046;-59
2022/11/07 03:17:36;;;;;;;8.05;2.40;;;;;;;13.73;59.50;99038.31;5011485;28;20473;-59
2022/11/07 03:20:03;;;;;;;4.70;1.83;;;;;;;13.73;59.59;99048.03;5011411;28;20140;-60
2022/11/07 03:22:29;;;;;;;5.57;1.80;;;;;;;13.72;59.66;99041.91;5011429;28;20042;-59
2022/11/07 03:24:56;;;;;;;4.38;1.92;;;;;;;13.73;59.68;99040.94;5011449;28;20101;-60
2022/11/07 03:27:22;;;;;;;10.40;1.98;;;;;;;13.73;59.92;99038.31;5011334;28;20060;-59
2022/11/07 03:29:49;;;;;;;7.75;1.95;;;;;;;13.73;59.71;99040.94;5011332;28;20052;-59
2022/11/07 03:32:16;;;;;;;6.43;1.77;;;;;;;13.74;60.02;99031.19;5011086;28;20046;-60
2022/11/07 03:34:42;;;;;;;5.07;1.88;;;;;;;13.76;59.79;99039.84;4993839;28;20080;-57
2022/11/07 03:37:09;;;;;;;9.00;2.13;;;;;;;13.76;59.89;99040.69;5011158;28;20092;-59
2022/11/07 03:39:35;;;;;;;7.65;2.17;;;;;;;13.78;59.97;99051.13;5011589;28;20046;-59
2022/11/07 03:42:02;;;;;;;4.45;1.92;;;;;;;13.79;60.06;99056.31;5011244;28;20046;-60
2022/11/07 03:44:29;;;;;;;9.50;2.30;;;;;;;13.81;59.94;99059.69;5011125;28;20457;-60
2022/11/07 03:46:55;;;;;;;6.60;2.28;;;;;;;13.82;59.96;99055.22;5011095;28;20054;-59
2022/11/07 03:49:22;;;;;;;7.28;2.20;;;;;;;13.85;59.99;99057.63;5011303;28;20052;-60
2022/11/07 03:51:48;;;;;;;10.10;2.30;;;;;;;13.86;59.98;99056.63;5013966;28;20050;-61
2022/11/07 03:54:15;;;;;;;5.38;1.77;;;;;;;13.86;60.08;99061.13;5015164;28;20054;-60
2022/11/07 03:56:41;;;;;;;4.38;1.90;;;;;;;13.87;59.92;99058.31;5014792;28;20065;-59
2022/11/07 03:59:08;;;;;;;5.55;2.08;;;;;;;13.88;59.96;99057.38;5015182;28;20471;-59
2022/11/07 04:01:34;;;;;;;5.15;1.80;;;;;;;13.89;60.07;99056.41;5014850;28;20458;-60
2022/11/07 04:04:01;;;;;;;5.97;2.08;;;;;;;13.90;60.13;99052.78;5014612;28;20489;-60
2022/11/07 04:06:28;;;;;;;7.68;2.10;;;;;;;13.91;60.04;99054.44;5014957;28;20396;-59
2022/11/07 04:08:54;;;;;;;7.53;2.03;;;;;;;13.93;60.10;99071.06;5014868;28;20050;-58
2022/11/07 04:19:36;;;;;;;6.63;1.88;;;;;;;13.96;59.94;99069.97;5014897;28;20496;-60
2022/11/07 04:22:03;;;;;;;6.43;2.00;;;;;;;13.96;59.99;99069.09;5014676;28;20418;-59
2022/11/07 04:24:29;;;;;;;8.13;2.70;;;;;;;13.94;60.33;99058.66;5014267;28;20054;-59
2022/11/07 04:37:10;;;;;;;6.97;2.08;;;;;;;13.99;60.00;99067.06;5378271;23;20104;-59
2022/11/07 04:39:36;;;;;;;9.50;2.92;;;;;;;13.98;60.09;99057.44;5014219;28;20057;-60
2022/11/07 04:42:03;;;;;;;10.57;2.45;;;;;;;13.99;59.95;99071.50;5014373;28;20049;-61
2022/11/07 04:44:29;;;;;;;6.82;1.88;;;;;;;13.98;60.06;99070.66;5013949;28;20050;-61
2022/11/07 04:46:56;;;;;;;7.65;2.03;;;;;;;13.98;60.32;99072.47;4996477;28;20076;-60
2022/11/07 04:49:23;;;;;;;5.43;1.90;;;;;;;13.98;60.18;99069.84;5014093;28;20049;-62
2022/11/07 04:51:54;;;;;;;4.88;1.70;;;;;;;13.97;60.57;99065.53;5014190;28;20058;-62
2022/11/07 04:54:21;;;;;;;6.97;2.42;;;;;;;13.99;59.98;99068.88;5014351;28;20054;-62
2022/11/07 04:56:47;;;;;;;7.15;2.25;;;;;;;13.99;60.25;99066.22;5013750;28;20054;-64
2022/11/07 04:59:14;;;;;;;9.60;2.40;;;;;;;13.99;60.33;99060.94;5013914;28;20046;-62
2022/11/07 05:01:40;;;;;;;8.20;2.20;;;;;;;13.99;60.41;99076.81;5013843;28;20133;-62
2022/11/07 05:04:07;;;;;;;9.52;2.63;;;;;;;13.99;60.31;99076.81;5012940;28;20050;-62
2022/11/07 05:06:35;;;;;;;6.75;1.67;;;;;;;13.98;60.44;99069.84;5013615;28;20046;-61
2022/11/07 05:09:02;;;;;;;8.07;2.63;;;;;;;13.98;60.36;99067.19;4996421;28;20137;-61
2022/11/07 05:11:28;;;;;;;10.05;2.40;;;;;;;13.99;60.36;99066.22;5013575;28;20130;-62
2022/11/07 05:13:55;;;;;;;4.55;2.08;;;;;;;13.99;60.42;99058.28;5013634;28;20209;-62
2022/11/07 05:16:21;;;;;;;7.28;2.00;;;;;;;14.00;60.58;99068.75;5013265;28;20506;-62
2022/11/07 05:18:48;;;;;;;7.60;2.28;;;;;;;14.00;60.62;99079.31;5013564;28;20054;-61
2022/11/07 05:21:14;;;;;;;7.65;2.15;;;;;;;14.00;60.58;99076.69;5013416;28;20053;-61
2022/11/07 05:23:41;;;;;;;7.45;2.38;;;;;;;14.01;60.41;99074.84;5013555;28;20053;-62
2022/11/07 05:26:08;;;;;;;9.68;2.65;;;;;;;14.01;60.60;99069.56;5013091;28;20058;-60
2022/11/07 05:28:34;;;;;;;7.65;2.13;;;;;;;14.01;60.53;99061.63;5013102;28;20050;-62
2022/11/07 05:31:06;;;;;;;8.55;2.22;;;;;;;14.01;60.63;99075.72;5013245;28;20053;-61
2022/11/07 05:33:33;;;;;;;10.32;2.22;;;;;;;14.01;60.52;99074.84;5013232;28;20085;-61
2022/11/07 05:36:13;;;;;;;5.03;1.95;;;;;;;13.99;61.20;99077.66;5013103;28;20111;-61
2022/11/07 05:38:41;;;;;;;13.88;2.80;;;;;;;14.03;61.02;99083.53;5012996;28;20797;-60
2022/11/07 05:41:08;;;;;;;11.00;2.78;;;;;;;14.03;60.55;99081.72;5012879;28;20696;-60
2022/11/07 05:43:36;;;;;;;7.63;2.60;;;;;;;14.03;60.70;99083.53;5013205;28;20042;-61
2022/11/07 05:46:03;;;;;;;12.00;2.45;;;;;;;14.03;60.58;99088.81;5012591;28;20053;-62
2022/11/07 05:48:30;;;;;;;9.35;2.60;;;;;;;14.03;60.52;99073.78;5013014;28;20045;-61
2022/11/07 05:50:57;;;;;;;6.30;1.92;;;;;;;14.03;60.53;99092.31;5013002;28;20053;-62
2022/11/07 05:53:24;;;;;;;8.95;2.60;;;;;;;14.03;60.70;99089.66;5013053;28;20145;-61
2022/11/07 05:55:52;;;;;;;9.30;2.58;;;;;;;14.03;60.74;99096.75;4995294;28;20053;-62
2022/11/07 05:58:19;;;;;;;6.18;2.33;;;;;;;14.02;60.68;99095.91;5012364;28;20057;-60
2022/11/07 06:00:47;;;;;;;8.27;2.17;;;;;;;14.03;60.72;99088.81;4995559;28;20082;-61
2022/11/07 06:03:14;;;;;;;11.25;3.08;;;;;;;14.01;60.75;99088.94;4995363;28;20446;-61
2022/11/07 06:05:42;;;;;;;9.48;3.20;;;;;;;14.01;60.96;99096.88;5012810;28;20401;-61
2022/11/07 06:08:10;;;;;;;6.32;2.20;;;;;;;14.00;60.59;99097.84;5012399;28;20498;-61
2022/11/07 06:10:38;;;;;;;9.05;2.33;;;;;;;14.01;60.72;99099.53;5012726;28;20050;-62
2022/11/07 06:13:07;;;;;;;7.80;2.95;;;;;;;14.00;60.81;99089.91;4994916;28;20049;-61
2022/11/07 06:15:35;;;;;;;10.63;2.80;;;;;;;14.00;60.73;99095.19;5012158;28;20050;-60
2022/11/07 06:18:04;;;;;;;9.88;2.38;;;;;;;14.00;60.74;99097.00;4994823;28;20076;-62
2022/11/07 06:20:32;;;;;;;13.40;2.90;;;;;;;13.99;60.67;99098.81;5012478;28;20108;-60
2022/11/07 06:23:02;;;;;;;8.80;2.42;;;;;;;13.99;60.93;99104.13;5012279;28;20140;-60
2022/11/07 06:25:29;;;;;;;8.98;2.63;;;;;;;13.97;60.82;99098.09;5012062;28;20139;-60
2022/11/07 06:28:01;;;;;;;8.32;2.70;;;;;;;13.97;61.20;99110.50;5011889;28;20537;-60
2022/11/07 06:30:27;;;;;;;8.68;2.13;;;;;;;13.99;60.78;99105.91;5012355;28;20057;-60
2022/11/07 06:32:54;;;;;;;7.40;2.20;;;;;;;13.99;60.74;99117.34;5012134;28;20132;-61
2022/11/07 06:35:21;;;;;;;8.10;2.20;;;;;;;13.98;60.72;99105.06;5012008;28;20061;-62
2022/11/07 06:37:47;;;;;;;8.40;3.08;;;;;;;13.99;60.75;99103.25;5011889;28;20107;-61
2022/11/07 06:40:14;;;;;;;7.13;2.28;;;;;;;13.98;61.03;99110.34;5012413;28;20056;-61
2022/11/07 06:42:40;;;;;;;10.18;2.70;;;;;;;13.99;60.98;99103.25;5011944;28;20137;-60
2022/11/07 06:45:07;;;;;;;9.48;2.22;;;;;;;13.98;60.93;99107.69;5011892;28;20050;-60
2022/11/07 06:47:34;;;;;;;10.25;2.80;;;;;;;13.99;60.89;99119.13;5011882;28;20049;-60
2022/11/07 06:50:00;;;;;;;9.32;2.70;;;;;;;14.00;61.17;99119.00;5011753;28;20145;-61
2022/11/07 06:52:27;;;;;;;9.23;2.70;;;;;;;13.99;61.00;99119.13;5011765;28;20418;-60
2022/11/07 06:54:54;;;;;;;11.77;2.53;;;;;;;13.98;61.03;99112.16;5011719;28;20053;-61
2022/11/07 06:57:20;;;;;;;8.98;2.65;;;;;;;13.99;60.88;99120.00;5011715;28;20052;-60
2022/11/07 06:59:47;;;;;;;7.47;2.30;;;;;;;13.98;61.04;99118.28;5011722;28;20133;-61
2022/11/07 07:02:17;;;;;;;11.27;2.30;;;;;;;13.99;60.76;99129.72;5011610;28;20088;-60
2022/11/07 07:05:04;;;;;;;12.05;2.45;;;;;;;13.99;60.88;99130.56;5011139;28;20077;-60
2022/11/07 07:07:30;;;;;;;8.65;2.65;;;;;;;14.00;60.98;99126.09;5011700;28;20052;-61
2022/11/07 07:09:57;;;;;;;10.50;2.30;;;;;;;14.00;60.99;99126.09;5011516;28;20050;-61
2022/11/07 07:12:25;;;;;;;14.57;2.95;;;;;;;13.99;61.09;99127.94;5011491;28;20487;-61
2022/11/07 07:14:51;;;;;;;9.13;2.33;;;;;;;13.99;60.92;99135.88;5011332;28;20073;-61
2022/11/07 07:17:18;;;;;;;5.43;1.92;;;;;;;14.00;60.88;99141.97;5011596;28;20104;-60
2022/11/07 07:19:44;;;;;;;8.45;2.28;;;;;;;14.00;60.96;99149.91;5011585;28;20046;-60
2022/11/07 07:22:12;;;;;;;8.65;2.47;;;;;;;13.99;61.04;99140.31;5011600;28;20133;-63
2022/11/07 07:24:39;;;;;;;10.10;2.03;;;;;;;13.99;61.05;99149.09;5011398;28;20089;-62
2022/11/07 07:27:06;;;;;;;8.63;2.33;;;;;;;14.00;60.96;99153.41;5010589;28;20529;-61
2022/11/07 07:29:32;;;;;;;9.10;2.50;;;;;;;14.00;61.07;99147.28;5011287;28;20137;-60
2022/11/07 07:31:59;;;;;;;11.95;2.70;;;;;;;14.00;61.04;99149.91;5011318;28;20096;-66
2022/11/07 07:34:25;;;;;;;8.30;2.60;;;;;;;13.99;60.88;99146.44;5011220;28;20050;-60
2022/11/07 07:36:53;;;;;;;7.88;2.17;;;;;;;14.01;60.86;99154.25;5010870;28;20056;-62
2022/11/07 07:39:19;;;;;;;10.35;2.25;;;;;;;14.00;60.88;99150.78;5011376;28;20045;-60
2022/11/07 07:41:48;;;;;;;7.35;2.03;;;;;;;14.02;60.93;99150.66;5011214;28;20050;-60
2022/11/07 07:44:14;;;;;;;9.93;2.10;;;;;;;14.02;60.73;99158.59;5011394;28;20058;-60
2022/11/07 07:46:41;;;;;;;8.90;2.00;;;;;;;14.02;60.79;99162.06;4993552;28;20139;-60
2022/11/07 07:49:08;;;;;;;12.13;2.35;;;;;;;14.03;60.88;99165.56;5011372;28;20042;-60
2022/11/07 07:51:34;;;;;;;9.48;2.22;;;;;;;14.05;60.91;99168.91;5011472;28;20053;-60
2022/11/07 07:54:01;;;;;;;7.53;1.65;;;;;;;14.06;60.68;99163.50;5011264;28;20064;-61
2022/11/07 07:56:27;;;;;;;6.55;2.00;;;;;;;14.06;60.66;99168.78;5010975;28;20144;-61
2022/11/07 07:58:54;;;;;;;9.13;2.22;;;;;;;14.07;60.87;99161.69;5011065;28;20049;-60
2022/11/07 08:01:20;;;;;;;10.75;2.50;;;;;;;14.08;60.74;99163.38;5010934;28;20159;-61
2022/11/07 08:03:48;;;;;;;9.48;2.13;;;;;;;14.08;60.84;99160.72;5011484;28;20100;-61
2022/11/07 08:06:28;;;;;;;8.20;2.35;;;;;;;14.10;60.77;99158.81;5010904;28;20046;-61
2022/11/07 08:08:55;;;;;;;13.73;2.47;;;;;;;14.12;60.67;99162.16;5010871;28;20046;-60
2022/11/07 08:11:21;;;;;;;12.60;2.40;;;;;;;14.13;60.85;99158.53;5010860;28;20061;-61
2022/11/07 08:13:48;;;;;;;8.27;2.30;;;;;;;14.15;60.85;99155.75;5010824;28;20058;-60
2022/11/07 08:16:14;;;;;;;11.50;2.65;;;;;;;14.15;60.68;99163.72;5011138;28;20058;-61
2022/11/07 08:18:41;;;;;;;9.85;1.92;;;;;;;14.18;60.81;99159.03;5010954;28;20050;-60
2022/11/07 08:21:08;;;;;;;8.02;2.20;;;;;;;14.20;60.69;99154.44;5010906;28;20057;-61
2022/11/07 08:23:35;;;;;;;8.07;2.28;;;;;;;14.22;60.85;99156.94;5010957;28;20053;-62
2022/11/07 08:26:03;;;;;;;10.95;2.65;;;;;;;14.24;60.75;99162.94;5010569;28;20061;-61
2022/11/07 08:28:32;;;;;;;7.95;2.80;;;;;;;14.26;60.84;99165.47;5010684;28;20050;-61
2022/11/07 08:31:08;;;;;;;7.07;2.08;;;;;;;14.27;60.97;99159.19;5010922;28;20057;-61
2022/11/07 08:33:35;;;;;;;11.80;2.75;;;;;;;14.33;60.66;99167.47;5010983;28;20073;-62
2022/11/07 08:36:03;;;;;;;11.18;2.60;;;;;;;14.35;60.67;99166.53;5010815;28;20136;-61
2022/11/07 08:38:33;;;;;;;8.90;2.63;;;;;;;14.37;60.58;99169.88;4994730;28;20422;-61
2022/11/07 08:40:59;;;;;;;9.80;2.65;;;;;;;14.39;60.48;99163.50;5013970;28;20093;-61
2022/11/07 08:43:26;;;;;;;10.95;2.42;;;;;;;14.42;60.68;99165.03;5014444;28;20045;-60
2022/11/07 08:45:53;;;;;;;8.95;2.35;;;;;;;14.42;60.48;99163.25;5014146;28;20046;-60
2022/11/07 08:48:20;;;;;;;11.60;1.90;;;;;;;14.45;60.37;99165.66;5014053;28;20050;-60
2022/11/07 08:50:54;;;;;;;6.35;2.05;;;;;;;14.45;60.58;99168.31;5014186;28;20050;-61
2022/11/07 08:53:22;;;;;;;8.52;2.63;;;;;;;14.51;60.62;99171.41;5013955;28;20402;-62
2022/11/07 08:55:49;;;;;;;8.02;2.28;;;;;;;14.54;60.57;99169.31;5013762;28;20410;-62
2022/11/07 08:58:15;;;;;;;10.73;2.60;;;;;;;14.57;60.41;99176.16;5014021;28;20045;-61
2022/11/07 09:00:42;;;;;;;13.10;2.33;;;;;;;14.57;60.20;99170.88;5013947;28;20137;-62
2022/11/07 09:03:10;;;;;;;9.93;1.92;;;;;;;14.58;60.43;99178.69;5014020;28;20509;-60
2022/11/07 09:05:57;;;;;;;10.05;2.03;;;;;;;14.62;60.44;99179.31;5013381;28;20050;-61
2022/11/07 09:08:24;;;;;;;8.50;2.40;;;;;;;14.64;60.22;99176.50;5013669;28;20049;-60
2022/11/07 09:10:50;;;;;;;11.65;2.42;;;;;;;14.66;60.47;99179.88;5013732;28;20046;-61
2022/11/07 09:13:19;;;;;;;10.88;2.72;;;;;;;14.66;60.11;99183.34;5013745;28;20077;-62
2022/11/07 09:15:46;;;;;;;7.55;2.10;;;;;;;14.69;60.17;99190.22;5013787;28;20050;-60
2022/11/07 09:18:17;;;;;;;12.55;2.22;;;;;;;14.70;60.19;99191.91;5013271;28;20112;-62
2022/11/07 09:20:44;;;;;;;9.73;2.28;;;;;;;14.70;60.01;99187.41;5013648;28;20084;-61
2022/11/07 09:23:10;;;;;;;12.60;2.35;;;;;;;14.70;60.13;99190.06;5013699;28;20042;-60
2022/11/07 09:25:37;;;;;;;12.45;2.90;;;;;;;14.72;60.29;99192.59;5013245;28;20052;-60
2022/11/07 09:28:04;;;;;;;12.38;2.60;;;;;;;14.72;59.93;99208.50;5013229;28;20080;-63
2022/11/07 09:30:31;;;;;;;8.85;2.67;;;;;;;14.72;59.91;99211.13;4995886;28;20068;-61
2022/11/07 09:32:57;;;;;;;9.90;3.05;;;;;;;14.71;59.89;99209.47;5013101;28;20510;-61
2022/11/07 09:35:24;;;;;;;5.60;1.85;;;;;;;14.72;60.08;99217.28;5013010;28;20042;-61
2022/11/07 09:37:51;;;;;;;8.95;1.98;;;;;;;14.73;60.09;99215.50;5013002;28;20629;-61
2022/11/07 09:40:48;;;;;;;8.73;2.28;;;;;;;14.69;60.58;99216.72;5013008;28;20498;-60
2022/11/07 09:43:32;;;;;;;9.02;2.22;;;;;;;14.71;60.48;99226.22;5012918;28;20058;-61
2022/11/07 09:46:01;;;;;;;9.00;2.30;;;;;;;14.77;60.02;99216.09;5013003;28;20052;-61
2022/11/07 09:48:37;;;;;;;10.18;1.98;;;;;;;14.75;60.34;99225.94;5012374;28;20050;-61
2022/11/07 09:51:11;;;;;;;9.77;2.15;;;;;;;14.79;60.41;99222.94;5013104;28;20046;-62
2022/11/07 09:53:44;;;;;;;7.85;2.28;;;;;;;14.80;60.59;99224.63;5012645;28;20413;-62
2022/11/07 09:56:11;;;;;;;8.90;2.10;;;;;;;14.87;60.46;99224.13;5012985;28;20049;-60
2022/11/07 09:58:44;;;;;;;13.70;2.42;;;;;;;14.89;60.52;99227.47;5012681;28;20050;-60
2022/11/07 10:01:14;;;;;;;10.23;2.85;;;;;;;14.97;60.68;99232.97;5012861;28;20049;-60
2022/11/07 10:03:42;;;;;;;7.07;2.47;;;;;;;15.03;60.54;99229.78;4995482;28;20062;-60
2022/11/07 10:06:36;;;;;;;9.52;2.33;;;;;;;15.08;60.54;99226.75;4997843;28;20506;-60
2022/11/07 10:09:22;;;;;;;9.98;2.25;;;;;;;15.13;60.46;99258.19;5012670;28;20112;-59
2022/11/07 10:11:58;;;;;;;7.50;2.30;;;;;;;15.18;60.23;99248.03;5012529;28;20502;-61
2022/11/07 10:14:53;;;;;;;10.02;2.10;;;;;;;15.21;60.31;99253.91;5012440;28;20510;-61
2022/11/07 10:17:50;;;;;;;10.05;2.20;;;;;;;15.27;60.34;99244.59;4994936;28;20528;-60
2022/11/07 10:20:41;;;;;;;9.27;1.98;;;;;;;15.34;59.88;99244.91;5012387;28;20053;-61
2022/11/07 10:23:40;;;;;;;9.82;1.90;;;;;;;15.37;60.09;99239.34;4995341;28;20049;-61
2022/11/07 10:26:11;;;;;;;8.00;1.90;;;;;;;15.44;59.92;99243.16;5012036;28;20531;-63
2022/11/07 10:28:56;;;;;;;7.85;1.90;;;;;;;15.47;59.70;99252.66;5012313;28;20054;-61
2022/11/07 10:31:26;;;;;;;6.85;2.20;;;;;;;15.56;59.93;99251.88;5012147;28;20049;-61
2022/11/07 10:34:00;;;;;;;11.30;2.40;;;;;;;15.57;59.61;99253.56;5012523;28;20055;-60
2022/11/07 10:38:55;;;;;;;6.97;1.98;;;;;;;15.67;59.58;99258.91;5034490;23;20049;-62
2022/11/07 10:41:27;;;;;;;9.35;1.77;;;;;;;15.71;59.79;99262.97;5034095;28;20099;-58
2022/11/07 10:44:01;;;;;;;6.20;1.67;;;;;;;15.77;59.77;99258.94;5034266;28;20044;-60
2022/11/07 10:46:37;;;;;;;8.93;3.03;;;;;;;15.83;59.57;99260.22;5033704;28;20493;-60
2022/11/07 10:49:15;;;;;;;8.43;2.05;;;;;;;15.88;59.25;99258.00;5051960;28;20095;-60
2022/11/07 10:51:43;;;;;;;6.18;1.35;;;;;;;15.96;58.89;99260.84;5051609;28;20052;-61
2022/11/07 10:54:39;;;;;;;9.07;2.22;;;;;;;15.93;59.30;99263.75;5052015;28;20079;-60
2022/11/07 10:57:08;;;;;;;7.60;2.10;;;;;;;15.99;58.91;99257.94;5030793;28;20045;-61
2022/11/07 10:59:53;;;;;;;6.00;1.85;;;;;;;15.96;58.96;99250.22;5051444;28;20486;-59
2022/11/07 11:02:22;;;;;;;6.95;2.03;;;;;;;15.99;58.91;99252.63;5050982;28;20041;-61
2022/11/07 11:04:51;;;;;;;10.32;2.72;;;;;;;15.97;58.82;99248.44;5033663;28;20099;-62
2022/11/07 11:07:17;;;;;;;8.38;2.28;;;;;;;15.98;58.87;99250.09;5051221;28;20045;-59
2022/11/07 11:09:58;;;;;;;8.82;1.98;;;;;;;15.93;59.00;99247.84;5051334;28;20460;-58
2022/11/07 11:12:31;;;;;;;5.88;1.88;;;;;;;15.96;58.97;99247.56;5051811;28;20139;-59
2022/11/07 11:15:09;;;;;;;6.45;1.80;;;;;;;15.96;59.01;99255.53;5051359;28;20295;-61
2022/11/07 11:17:36;;;;;;;4.72;1.70;;;;;;;16.00;59.14;99245.50;5051123;28;20052;-58
2022/11/07 11:20:05;;;;;;;9.25;1.88;;;;;;;16.01;59.46;99244.53;5051167;28;20137;-61
2022/11/07 11:22:40;;;;;;;9.98;1.65;;;;;;;16.01;59.21;99242.69;5051107;28;20588;-59
2022/11/07 11:25:10;;;;;;;6.63;1.98;;;;;;;16.03;58.89;99253.19;5051369;28;20076;-60
2022/11/07 11:27:37;;;;;;;10.20;2.15;;;;;;;16.04;58.93;99246.91;5050864;28;20135;-59
2022/11/07 11:30:07;;;;;;;8.95;1.52;;;;;;;16.05;58.98;99245.09;5033426;28;20456;-59
2022/11/07 11:32:51;;;;;;;6.10;1.80;;;;;;;16.02;59.15;99248.84;5051019;28;20041;-61
2022/11/07 11:35:27;;;;;;;8.75;1.90;;;;;;;16.04;58.93;99248.72;5033371;28;20068;-60
2022/11/07 11:38:12;;;;;;;10.55;2.10;;;;;;;16.03;58.92;99247.88;5051031;28;20090;-58
2022/11/07 11:40:43;;;;;;;8.80;2.10;;;;;;;16.08;58.79;99237.72;5033559;28;20080;-59
2022/11/07 11:43:10;;;;;;;6.65;1.55;;;;;;;16.10;58.68;99249.03;5051201;28;20526;-61
2022/11/07 11:45:39;;;;;;;5.88;1.52;;;;;;;16.10;58.83;99245.50;5051072;28;20052;-59
2022/11/07 11:48:20;;;;;;;9.35;1.88;;;;;;;16.09;58.88;99250.00;5050690;28;20128;-58
2022/11/07 11:50:58;;;;;;;5.47;1.85;;;;;;;16.08;58.86;99247.47;5051050;28;20102;-60
2022/11/07 11:53:27;;;;;;;5.88;1.77;;;;;;;16.12;58.77;99248.88;5050878;28;20057;-61
2022/11/07 11:56:16;;;;;;;6.53;1.83;;;;;;;16.11;58.86;99256.00;5050894;28;20174;-61
2022/11/07 11:58:59;;;;;;;8.57;2.50;;;;;;;16.14;58.70;99262.84;5051089;28;20095;-60
2022/11/07 12:01:37;;;;;;;6.53;2.08;;;;;;;16.17;58.73;99251.13;5050924;28;20045;-62
2022/11/07 12:04:18;;;;;;;6.63;1.98;;;;;;;16.17;58.71;99248.47;5050930;28;20140;-60
2022/11/07 12:06:45;;;;;;;8.32;1.98;;;;;;;16.22;58.60;99257.69;5050714;28;20334;-60